createdAt,value
2023-04-01T00:01:01.494Z,89.90
2023-04-01T00:03:30.683Z,89.70
2023-04-01T00:05:59.823Z,89.50
2023-04-01T00:08:28.813Z,89.90
2023-04-01T00:10:57.896Z,90.30
2023-04-01T00:13:27.238Z,90.10
2023-04-01T00:15:57.588Z,90.10
2023-04-01T00:18:26.556Z,90.10
2023-04-01T00:20:55.285Z,90.30
2023-04-01T00:23:24.048Z,90.50
2023-04-01T00:25:52.632Z,90.10
2023-04-01T00:28:22.002Z,89.90
2023-04-01T00:30:50.546Z,89.90
2023-04-01T00:33:19.091Z,89.90
2023-04-01T00:35:47.679Z,90.20
2023-04-01T00:38:17.736Z,90.30
2023-04-01T00:40:47.036Z,90.20
2023-04-01T00:43:18.751Z,90.30
2023-04-01T00:45:49.325Z,90.50
2023-04-01T00:48:26.130Z,90.70
2023-04-01T00:50:56.210Z,90.70
2023-04-01T00:53:25.194Z,90.80
2023-04-01T00:56:04.470Z,90.70
2023-04-01T00:58:34.567Z,90.60
2023-04-01T01:01:03.180Z,90.80
2023-04-01T01:03:31.909Z,91.10
2023-04-01T01:06:01.953Z,91.40
2023-04-01T01:08:31.998Z,91.00
2023-04-01T01:11:00.765Z,91.10
2023-04-01T01:13:39.848Z,91.20
2023-04-01T01:16:09.900Z,91.10
2023-04-01T01:18:59.133Z,90.90
2023-04-01T01:21:41.430Z,90.60
2023-04-01T01:24:23.451Z,90.60
2023-04-01T01:27:03.931Z,90.40
2023-04-01T01:29:43.399Z,90.30
2023-04-01T01:32:20.108Z,90.10
2023-04-01T01:34:54.737Z,90.50
2023-04-01T01:37:25.953Z,90.40
2023-04-01T01:39:59.191Z,90.10
2023-04-01T01:42:29.041Z,90.70
2023-04-01T01:45:01.230Z,90.90
2023-04-01T01:47:30.874Z,90.60
2023-04-01T01:50:00.833Z,90.80
2023-04-01T01:52:29.489Z,90.90
2023-04-01T01:54:59.080Z,91.10
2023-04-01T01:57:30.874Z,91.30
2023-04-01T02:00:10.016Z,91.00
2023-04-01T02:02:45.380Z,90.80
2023-04-01T02:05:16.953Z,90.70
2023-04-01T02:07:47.876Z,91.00
2023-04-01T02:10:16.670Z,91.00
2023-04-01T02:12:46.340Z,91.10
2023-04-01T02:15:16.638Z,90.90
2023-04-01T02:17:46.977Z,91.00
2023-04-01T02:20:17.259Z,90.90
2023-04-01T02:22:47.363Z,91.20
2023-04-01T02:25:17.560Z,91.00
2023-04-01T02:27:46.826Z,91.20
2023-04-01T02:30:16.592Z,91.20
2023-04-01T02:32:46.122Z,91.10
2023-04-01T02:35:16.263Z,91.40
2023-04-01T02:37:45.608Z,91.50
2023-04-01T02:40:16.197Z,91.30
2023-04-01T02:42:45.346Z,90.70
2023-04-01T02:45:14.339Z,90.60
2023-04-01T02:47:43.099Z,90.50
2023-04-01T02:50:12.026Z,90.50
2023-04-01T02:52:40.828Z,90.20
2023-04-01T02:55:09.646Z,90.30
2023-04-01T02:57:38.387Z,90.50
2023-04-01T03:00:10.638Z,90.60
2023-04-01T03:02:40.662Z,90.50
2023-04-01T03:05:09.385Z,90.50
2023-04-01T03:07:38.128Z,90.50
2023-04-01T03:10:07.379Z,90.50
2023-04-01T03:12:36.107Z,90.50
2023-04-01T03:15:10.741Z,90.50
2023-04-01T03:17:36.928Z,90.50
2023-04-01T03:20:07.282Z,90.70
2023-04-01T03:22:37.595Z,90.70
2023-04-01T03:25:08.602Z,90.90
2023-04-01T03:27:37.124Z,91.00
2023-04-01T03:30:07.979Z,90.90
2023-04-01T03:32:40.166Z,90.80
2023-04-01T03:35:10.545Z,90.70
2023-04-01T03:37:39.196Z,90.00
2023-04-01T03:40:11.448Z,90.00
2023-04-01T03:42:41.179Z,90.30
2023-04-01T03:45:10.351Z,90.40
2023-04-01T03:47:41.450Z,90.40
2023-04-01T03:50:10.901Z,90.40
2023-04-01T03:52:41.210Z,90.60
2023-04-01T03:55:09.805Z,90.30
2023-04-01T03:57:38.994Z,90.50
2023-04-01T04:00:09.655Z,90.70
2023-04-01T04:02:40.758Z,90.30
2023-04-01T04:05:10.530Z,90.20
2023-04-01T04:07:40.486Z,90.20
2023-04-01T04:10:11.118Z,90.00
2023-04-01T04:12:42.532Z,90.00
2023-04-01T04:15:13.258Z,90.00
2023-04-01T04:17:46.163Z,89.30
2023-04-01T04:20:17.131Z,89.10
2023-04-01T04:22:45.778Z,89.20
2023-04-01T04:25:14.485Z,89.40
2023-04-01T04:27:44.899Z,88.60
2023-04-01T04:30:15.473Z,88.50
2023-04-01T04:32:44.090Z,88.80
2023-04-01T04:35:14.046Z,88.80
2023-04-01T04:37:42.654Z,88.70
2023-04-01T04:40:12.834Z,88.70
2023-04-01T04:42:41.520Z,88.40
2023-04-01T04:45:13.511Z,88.50
2023-04-01T04:47:43.886Z,88.60
2023-04-01T04:50:13.810Z,88.70
2023-04-01T04:52:43.607Z,88.60
2023-04-01T04:55:12.205Z,88.70
2023-04-01T04:57:41.339Z,88.90
2023-04-01T05:00:11.870Z,89.20
2023-04-01T05:02:42.263Z,89.40
2023-04-01T05:05:12.411Z,89.50
2023-04-01T05:07:40.993Z,89.40
2023-04-01T05:10:09.939Z,89.60
2023-04-01T05:12:39.628Z,89.70
2023-04-01T05:15:11.093Z,89.80
2023-04-01T05:17:41.277Z,89.90
2023-04-01T05:20:13.694Z,90.00
2023-04-01T05:22:43.854Z,90.40
2023-04-01T05:25:12.461Z,90.10
2023-04-01T05:27:41.763Z,90.40
2023-04-01T05:30:10.560Z,90.80
2023-04-01T05:32:44.763Z,91.10
2023-04-01T05:35:13.378Z,91.00
2023-04-01T05:37:41.903Z,91.10
2023-04-01T05:40:12.541Z,91.10
2023-04-01T05:42:41.044Z,90.70
2023-04-01T05:45:11.461Z,90.80
2023-04-01T05:47:47.510Z,91.00
2023-04-01T05:50:19.292Z,91.10
2023-04-01T05:52:49.192Z,91.00
2023-04-01T05:55:18.560Z,91.10
2023-04-01T05:57:49.739Z,90.80
2023-04-01T06:00:20.591Z,91.10
2023-04-01T06:02:49.649Z,91.00
2023-04-01T06:05:26.064Z,91.30
2023-04-01T06:07:57.958Z,91.30
2023-04-01T06:10:28.078Z,91.30
2023-04-01T06:13:10.493Z,91.90
2023-04-01T06:15:41.564Z,91.70
2023-04-01T06:18:14.630Z,91.20
2023-04-01T06:20:44.705Z,91.40
2023-04-01T06:23:21.915Z,91.30
2023-04-01T06:25:56.496Z,91.60
2023-04-01T06:28:41.844Z,91.50
2023-04-01T06:31:16.623Z,91.50
2023-04-01T06:33:49.751Z,91.60
2023-04-01T06:36:23.786Z,91.70
2023-04-01T06:39:06.119Z,92.00
2023-04-01T06:41:46.790Z,92.50
2023-04-01T06:44:36.039Z,92.20
2023-04-01T06:47:23.967Z,92.10
2023-04-01T06:50:01.564Z,92.10
2023-04-01T06:52:50.821Z,92.30
2023-04-01T06:55:41.748Z,92.00
2023-04-01T06:58:25.231Z,91.80
2023-04-01T07:01:02.192Z,92.10
2023-04-01T07:03:33.805Z,92.20
2023-04-01T07:06:08.649Z,92.00
2023-04-01T07:08:40.748Z,92.10
2023-04-01T07:11:10.849Z,92.20
2023-04-01T07:14:03.190Z,92.80
2023-04-01T07:16:33.250Z,91.90
2023-04-01T07:19:05.369Z,92.10
2023-04-01T07:21:37.285Z,92.20
2023-04-01T07:24:13.714Z,92.10
2023-04-01T07:26:46.912Z,92.40
2023-04-01T07:29:19.000Z,92.40
2023-04-01T07:32:11.763Z,92.00
2023-04-01T07:34:42.008Z,92.50
2023-04-01T07:37:21.027Z,92.60
2023-04-01T07:39:53.884Z,92.50
2023-04-01T07:42:45.064Z,92.40
2023-04-01T07:45:21.319Z,92.60
2023-04-01T07:47:54.431Z,92.20
2023-04-01T07:50:30.223Z,91.80
2023-04-01T07:53:12.476Z,92.10
2023-04-01T07:55:42.609Z,91.80
2023-04-01T07:58:20.056Z,91.80
2023-04-01T08:00:59.246Z,91.60
2023-04-01T08:03:35.702Z,92.00
2023-04-01T08:06:10.563Z,91.70
2023-04-01T08:08:46.716Z,92.20
2023-04-01T08:11:34.866Z,92.40
2023-04-01T08:14:22.930Z,91.40
2023-04-01T08:17:10.970Z,91.40
2023-04-01T08:20:00.858Z,91.60
2023-04-01T08:22:32.663Z,91.80
2023-04-01T08:25:04.215Z,91.80
2023-04-01T08:27:40.546Z,90.90
2023-04-01T08:30:22.691Z,91.50
2023-04-01T08:32:56.419Z,91.10
2023-04-01T08:35:36.922Z,91.20
2023-04-01T08:38:09.370Z,91.60
2023-04-01T08:40:45.513Z,91.20
2023-04-01T08:43:32.982Z,91.10
2023-04-01T08:46:06.743Z,91.00
2023-04-01T08:48:52.169Z,90.90
2023-04-01T08:51:40.780Z,91.20
2023-04-01T08:54:11.026Z,91.50
2023-04-01T08:56:42.480Z,91.10
2023-04-01T08:59:17.013Z,91.50
2023-04-01T09:01:47.227Z,91.40
2023-04-01T09:04:21.689Z,91.10
2023-04-01T09:06:51.817Z,91.30
2023-04-01T09:09:28.233Z,91.70
2023-04-01T09:12:04.611Z,91.50
2023-04-01T09:14:48.644Z,91.50
2023-04-01T09:17:37.238Z,91.30
2023-04-01T09:20:10.993Z,91.60
2023-04-01T09:22:53.663Z,91.60
2023-04-01T09:25:26.625Z,91.50
2023-04-01T09:28:01.372Z,91.50
2023-04-01T09:30:35.220Z,91.20
2023-04-01T09:33:24.806Z,91.80
2023-04-01T09:36:09.935Z,91.60
2023-04-01T09:38:56.607Z,91.20
2023-04-01T09:41:27.542Z,91.70
2023-04-01T09:44:04.150Z,91.20
2023-04-01T09:46:52.377Z,91.00
2023-04-01T09:49:28.469Z,91.00
2023-04-01T09:52:01.469Z,90.90
2023-04-01T09:54:34.746Z,90.90
2023-04-01T09:57:10.942Z,90.70
2023-04-01T09:59:51.447Z,90.80
2023-04-01T10:02:56.167Z,91.00
2023-04-01T10:05:30.803Z,91.70
2023-04-01T10:08:17.476Z,91.30
2023-04-01T10:10:50.518Z,91.00
2023-04-01T10:13:37.090Z,91.50
2023-04-01T10:16:08.661Z,91.00
2023-04-01T10:18:41.862Z,91.00
2023-04-01T10:21:13.658Z,91.60
2023-04-01T10:23:52.815Z,91.90
2023-04-01T10:26:42.875Z,92.10
2023-04-01T10:29:37.265Z,91.60
2023-04-01T10:32:13.512Z,91.60
2023-04-01T10:34:44.310Z,90.70
2023-04-01T10:37:14.459Z,91.40
2023-04-01T10:40:03.209Z,90.90
2023-04-01T10:42:37.964Z,90.90
2023-04-01T10:45:37.559Z,91.30
2023-04-01T10:48:07.709Z,91.20
2023-04-01T10:50:44.010Z,91.30
2023-04-01T10:53:18.832Z,91.00
2023-04-01T10:55:50.613Z,91.40
2023-04-01T10:58:38.459Z,91.60
2023-04-01T11:01:38.517Z,91.80
2023-04-01T11:04:13.251Z,91.20
2023-04-01T11:07:19.138Z,90.90
2023-04-01T11:09:49.238Z,91.10
2023-04-01T11:12:37.361Z,90.70
2023-04-01T11:15:10.472Z,91.40
2023-04-01T11:17:43.512Z,91.20
2023-04-01T11:20:16.711Z,91.10
2023-04-01T11:22:55.547Z,90.70
2023-04-01T11:25:27.319Z,90.60
2023-04-01T11:28:16.010Z,91.00
2023-04-01T11:31:02.877Z,90.90
2023-04-01T11:33:55.763Z,91.00
2023-04-01T11:36:25.951Z,90.90
2023-04-01T11:39:15.479Z,90.40
2023-04-01T11:42:12.431Z,90.40
2023-04-01T11:45:02.222Z,90.20
2023-04-01T11:47:34.009Z,90.70
2023-04-01T11:50:16.966Z,90.90
2023-04-01T11:52:51.628Z,90.50
2023-04-01T11:55:38.299Z,90.40
2023-04-01T11:58:08.345Z,90.10
2023-04-01T12:01:01.644Z,89.00
2023-04-01T12:03:31.958Z,90.00
2023-04-01T12:06:05.505Z,89.40
2023-04-01T12:08:54.733Z,88.80
2023-04-01T12:11:24.923Z,88.30
2023-04-01T12:13:54.981Z,88.80
2023-04-01T12:16:34.050Z,88.30
2023-04-01T12:19:20.572Z,88.20
2023-04-01T12:21:53.392Z,88.80
2023-04-01T12:24:24.205Z,88.20
2023-04-01T12:26:57.347Z,87.50
2023-04-01T12:29:47.423Z,88.30
2023-04-01T12:32:35.083Z,88.30
2023-04-01T12:35:08.078Z,88.40
2023-04-01T12:37:53.058Z,88.70
2023-04-01T12:40:42.588Z,88.70
2023-04-01T12:43:49.444Z,87.80
2023-04-01T12:46:19.641Z,88.20
2023-04-01T12:48:50.193Z,87.70
2023-04-01T12:51:37.007Z,88.00
2023-04-01T12:54:25.970Z,87.40
2023-04-01T12:57:06.276Z,87.40
2023-04-01T12:59:54.154Z,86.60
2023-04-01T13:02:24.869Z,86.90
2023-04-01T13:05:13.711Z,86.50
2023-04-01T13:08:01.699Z,87.40
2023-04-01T13:10:35.104Z,86.50
2023-04-01T13:13:09.760Z,86.60
2023-04-01T13:15:58.160Z,87.20
2023-04-01T13:18:40.500Z,87.50
2023-04-01T13:21:10.837Z,87.10
2023-04-01T13:23:54.441Z,86.50
2023-04-01T13:26:33.243Z,85.80
2023-04-01T13:29:09.116Z,86.40
2023-04-01T13:31:44.045Z,86.10
2023-04-01T13:34:15.781Z,86.60
2023-04-01T13:36:48.835Z,86.70
2023-04-01T13:39:39.422Z,85.70
2023-04-01T13:42:12.492Z,85.70
2023-04-01T13:44:58.338Z,85.40
2023-04-01T13:47:34.288Z,85.90
2023-04-01T13:50:11.043Z,85.40
2023-04-01T13:52:59.884Z,85.10
2023-04-01T13:55:50.586Z,85.70
2023-04-01T13:58:23.704Z,86.10
2023-04-01T14:00:53.881Z,84.80
2023-04-01T14:03:40.703Z,85.50
2023-04-01T14:06:16.832Z,85.70
2023-04-01T14:09:01.911Z,84.70
2023-04-01T14:11:48.309Z,84.00
2023-04-01T14:14:22.518Z,84.30
2023-04-01T14:17:10.781Z,84.20
2023-04-01T14:20:03.923Z,84.10
2023-04-01T14:22:48.535Z,84.10
2023-04-01T14:25:30.736Z,84.10
2023-04-01T14:28:18.106Z,84.30
2023-04-01T14:31:04.654Z,83.90
2023-04-01T14:33:34.744Z,83.60
2023-04-01T14:36:23.442Z,83.40
2023-04-01T14:38:56.276Z,83.40
2023-04-01T14:41:29.045Z,83.50
2023-04-01T14:44:01.876Z,83.10
2023-04-01T14:46:41.304Z,83.20
2023-04-01T14:49:17.312Z,83.30
2023-04-01T14:51:47.404Z,82.80
2023-04-01T14:54:22.807Z,83.10
2023-04-01T14:56:53.798Z,82.30
2023-04-01T14:59:31.620Z,82.60
2023-04-01T15:02:10.752Z,82.50
2023-04-01T15:04:42.314Z,83.10
2023-04-01T15:07:28.715Z,82.80
2023-04-01T15:09:59.592Z,83.10
2023-04-01T15:12:46.132Z,83.70
2023-04-01T15:15:19.013Z,83.30
2023-04-01T15:18:11.112Z,83.10
2023-04-01T15:20:44.847Z,82.10
2023-04-01T15:23:22.633Z,82.10
2023-04-01T15:25:58.444Z,82.40
2023-04-01T15:28:48.243Z,81.80
2023-04-01T15:31:21.283Z,81.50
2023-04-01T15:33:59.159Z,82.10
2023-04-01T15:36:30.392Z,81.60
2023-04-01T15:39:00.420Z,81.80
2023-04-01T15:41:39.780Z,81.80
2023-04-01T15:44:38.745Z,81.20
2023-04-01T15:47:18.321Z,81.40
2023-04-01T15:49:48.355Z,82.30
2023-04-01T15:52:21.993Z,82.20
2023-04-01T15:55:04.294Z,81.90
2023-04-01T15:57:57.461Z,81.80
2023-04-01T16:00:30.602Z,81.20
2023-04-01T16:03:17.393Z,81.70
2023-04-01T16:05:56.332Z,81.30
2023-04-01T16:08:38.260Z,81.30
2023-04-01T16:11:17.592Z,80.90
2023-04-01T16:14:04.866Z,80.20
2023-04-01T16:16:40.938Z,80.10
2023-04-01T16:19:37.020Z,80.30
2023-04-01T16:22:18.200Z,80.50
2023-04-01T16:24:48.246Z,80.40
2023-04-01T16:27:32.309Z,80.60
2023-04-01T16:30:20.760Z,80.80
2023-04-01T16:32:53.840Z,80.80
2023-04-01T16:35:27.936Z,80.80
2023-04-01T16:38:03.537Z,80.60
2023-04-01T16:40:37.843Z,80.30
2023-04-01T16:43:08.954Z,79.80
2023-04-01T16:45:57.019Z,80.60
2023-04-01T16:48:27.049Z,80.40
2023-04-01T16:51:07.277Z,79.70
2023-04-01T16:53:47.491Z,78.80
2023-04-01T16:56:22.308Z,79.20
2023-04-01T16:59:26.748Z,78.50
2023-04-01T17:02:03.007Z,78.60
2023-04-01T17:04:38.765Z,77.90
2023-04-01T17:07:08.923Z,78.10
2023-04-01T17:09:42.992Z,78.00
2023-04-01T17:12:29.434Z,78.20
2023-04-01T17:15:04.321Z,77.80
2023-04-01T17:17:40.799Z,77.90
2023-04-01T17:20:17.819Z,77.90
2023-04-01T17:22:51.766Z,76.40
2023-04-01T17:25:33.826Z,76.40
2023-04-01T17:28:15.806Z,75.70
2023-04-01T17:31:01.305Z,74.90
2023-04-01T17:33:31.334Z,74.50
2023-04-01T17:36:07.776Z,73.90
2023-04-01T17:38:47.727Z,74.90
2023-04-01T17:44:33.425Z,74.50
2023-04-01T17:47:12.380Z,75.90
2023-04-01T17:49:41.668Z,76.20
2023-04-01T17:52:36.574Z,76.80
2023-04-01T17:55:12.395Z,75.60
2023-04-01T17:58:00.811Z,75.20
2023-04-01T18:00:46.117Z,75.60
2023-04-01T18:03:06.612Z,76.10
2023-04-01T18:05:41.428Z,74.20
2023-04-01T18:08:38.727Z,73.80
2023-04-01T18:11:26.174Z,74.30
2023-04-01T18:13:56.306Z,74.30
2023-04-01T18:16:49.324Z,74.20
2023-04-01T18:23:06.133Z,74.80
2023-04-01T18:28:35.998Z,75.40
2023-04-01T18:31:09.062Z,75.40
2023-04-01T18:33:54.469Z,75.60
2023-04-01T18:36:39.629Z,75.80
2023-04-01T18:39:29.862Z,75.70
2023-04-01T18:42:19.077Z,74.50
2023-04-01T18:44:48.765Z,73.60
2023-04-01T18:47:42.995Z,73.20
2023-04-01T18:50:30.389Z,71.60
2023-04-01T18:53:02.994Z,72.10
2023-04-01T18:55:36.126Z,72.60
2023-04-01T18:58:13.991Z,72.20
2023-04-01T19:03:41.579Z,70.90
2023-04-01T19:06:19.111Z,72.60
2023-04-01T19:12:11.419Z,71.60
2023-04-01T19:24:29.175Z,71.50
2023-04-01T19:27:19.778Z,71.80
2023-04-01T19:33:01.288Z,71.90
2023-04-01T19:35:34.305Z,71.60
2023-04-01T19:41:17.215Z,73.40
2023-04-01T19:43:53.004Z,72.90
2023-04-01T19:46:26.520Z,72.90
2023-04-01T19:52:37.959Z,73.00
2023-04-01T19:55:10.849Z,72.60
2023-04-01T19:57:52.080Z,73.50
2023-04-01T20:13:03.150Z,72.60
2023-04-01T20:22:03.991Z,73.00
2023-04-01T20:24:42.265Z,72.50
2023-04-01T20:27:15.557Z,72.30
2023-04-01T20:32:47.312Z,71.80
2023-04-01T20:35:17.401Z,72.30
2023-04-01T20:51:01.336Z,72.70
2023-04-01T21:00:16.296Z,73.30
2023-04-01T21:02:46.364Z,73.60
2023-04-01T21:05:20.980Z,73.20
2023-04-01T21:14:13.190Z,72.90
2023-04-01T21:16:50.855Z,72.60
2023-04-01T21:20:01.460Z,72.80
2023-04-01T21:25:40.243Z,73.00
2023-04-01T21:35:16.637Z,71.50
2023-04-01T21:48:49.074Z,71.30
2023-04-01T21:57:56.226Z,71.60
2023-04-01T22:03:41.351Z,71.30
2023-04-01T22:06:20.380Z,72.30
2023-04-01T22:09:09.178Z,71.20
2023-04-01T22:15:15.820Z,71.10
2023-04-01T22:17:58.770Z,69.60
2023-04-01T22:33:23.200Z,69.70
2023-04-01T22:35:56.487Z,70.30
2023-04-01T22:38:41.972Z,70.20
2023-04-01T22:41:13.352Z,70.10
2023-04-01T22:43:43.938Z,70.70
2023-04-01T22:46:31.102Z,70.40
2023-04-01T22:49:02.556Z,69.80
2023-04-01T22:51:32.663Z,69.70
2023-04-01T22:54:05.735Z,69.50
2023-04-01T22:56:36.024Z,69.80
2023-04-01T22:59:08.752Z,69.40
2023-04-01T23:01:40.529Z,69.30
2023-04-01T23:04:10.686Z,69.40
2023-04-01T23:06:43.947Z,69.40
2023-04-01T23:09:19.721Z,70.20
2023-04-01T23:11:49.865Z,69.60
2023-04-01T23:14:27.406Z,70.20
2023-04-01T23:16:58.090Z,70.80
2023-04-01T23:19:28.190Z,70.90
2023-04-01T23:22:15.217Z,71.50
2023-04-01T23:24:45.298Z,71.50
2023-04-01T23:27:15.379Z,71.30
2023-04-01T23:29:43.980Z,71.10
2023-04-01T23:32:16.897Z,71.70
2023-04-01T23:34:52.991Z,71.00
2023-04-01T23:37:22.200Z,71.30
2023-04-01T23:39:52.244Z,71.00
2023-04-01T23:42:25.096Z,71.30
2023-04-01T23:45:00.928Z,71.60
2023-04-01T23:47:33.737Z,71.30
2023-04-01T23:50:06.830Z,71.80
2023-04-01T23:52:39.729Z,71.80
2023-04-01T23:55:12.689Z,71.90
2023-04-01T23:57:41.287Z,72.20
